CMP806 MDSD-MMMX
Flight info
| Callsign | CMP806 |
|---|---|
| Flight time | 4h 6m |
| Altitude | 36000 |
| Route | ETBOD2J ETBOD DCT AVALU DCT KEBET DCT TALOS DCT LANDA DCT XORUV DCT LARLO LARLO4A |
| Aircraft | B738/M-SDE2E3FGHIRWXY/LB1 |
Departure
| Time | 2026-05-07 22:35 |
|---|---|
| Airport | Las Américas International Airport (MDSD) |
Arrival
| Time | 2026-05-08 02:42 |
|---|---|
| Airport | Mexico City Benito Juárez International Airport (MMMX) |
| Time | Latitude | Longitude | Altitude | Speed | Heading |
|---|---|---|---|---|---|
| 2026-05-07 22:12 | 18.42836 | -69.67484 | 67 ft | 0 kts | 9° |
| 2026-05-07 22:25 | 18.42820 | -69.67487 | 61 ft | 4 kts | 15° |
| 2026-05-07 22:25 | 18.42796 | -69.67497 | 65 ft | 4 kts | 43° |
| 2026-05-07 22:25 | 18.42785 | -69.67515 | 59 ft | 1 kts | 84° |
| 2026-05-07 22:28 | 18.42786 | -69.67504 | 65 ft | 4 kts | 84° |
| 2026-05-07 22:28 | 18.42793 | -69.67456 | 65 ft | 9 kts | 78° |
| 2026-05-07 22:28 | 18.42815 | -69.67388 | 63 ft | 10 kts | 66° |
| 2026-05-07 22:28 | 18.42862 | -69.67337 | 67 ft | 10 kts | 19° |
| 2026-05-07 22:29 | 18.42929 | -69.67350 | 61 ft | 10 kts | 342° |
| 2026-05-07 22:29 | 18.42995 | -69.67398 | 57 ft | 13 kts | 320° |
| 2026-05-07 22:29 | 18.43078 | -69.67447 | 62 ft | 14 kts | 339° |
| 2026-05-07 22:29 | 18.43178 | -69.67483 | 57 ft | 16 kts | 341° |
| 2026-05-07 22:30 | 18.43288 | -69.67521 | 63 ft | 17 kts | 343° |
| 2026-05-07 22:30 | 18.43389 | -69.67483 | 55 ft | 16 kts | 43° |
| 2026-05-07 22:30 | 18.43467 | -69.67398 | 59 ft | 16 kts | 46° |
| 2026-05-07 22:30 | 18.43546 | -69.67320 | 65 ft | 15 kts | 24° |
| 2026-05-07 22:31 | 18.43647 | -69.67339 | 68 ft | 15 kts | 340° |
| 2026-05-07 22:31 | 18.43743 | -69.67374 | 68 ft | 14 kts | 341° |
| 2026-05-07 22:31 | 18.43834 | -69.67406 | 68 ft | 14 kts | 341° |
| 2026-05-07 22:31 | 18.43921 | -69.67438 | 69 ft | 13 kts | 341° |
| 2026-05-07 22:32 | 18.44005 | -69.67468 | 62 ft | 13 kts | 341° |
| 2026-05-07 22:32 | 18.44087 | -69.67498 | 66 ft | 12 kts | 340° |
| 2026-05-07 22:32 | 18.44167 | -69.67503 | 66 ft | 12 kts | 24° |
| 2026-05-07 22:32 | 18.44210 | -69.67482 | 62 ft | 0 kts | 26° |
| 2026-05-07 22:33 | 18.44256 | -69.67457 | 62 ft | 16 kts | 26° |
| 2026-05-07 22:34 | 18.44331 | -69.67386 | 68 ft | 14 kts | 127° |
| 2026-05-07 22:34 | 18.44243 | -69.67359 | 68 ft | 13 kts | 161° |
| 2026-05-07 22:34 | 18.44115 | -69.67314 | 68 ft | 44 kts | 161° |
| 2026-05-07 22:34 | 18.43649 | -69.67144 | 67 ft | 96 kts | 161° |
| 2026-05-07 22:35 | 18.42888 | -69.66862 | 69 ft | 134 kts | 160° |
| 2026-05-07 22:35 | 18.41909 | -69.66504 | 125 ft | 159 kts | 161° |
| 2026-05-07 22:35 | 18.40833 | -69.66108 | 464 ft | 166 kts | 159° |
| 2026-05-07 22:35 | 18.39739 | -69.65673 | 885 ft | 168 kts | 159° |
| 2026-05-07 22:36 | 18.38617 | -69.65254 | 1247 ft | 174 kts | 160° |
| 2026-05-07 22:36 | 18.37440 | -69.64884 | 1637 ft | 178 kts | 161° |
| 2026-05-07 22:36 | 18.36206 | -69.64537 | 2039 ft | 190 kts | 164° |
| 2026-05-07 22:36 | 18.34871 | -69.64190 | 2382 ft | 204 kts | 165° |
| 2026-05-07 22:37 | 18.33462 | -69.63906 | 2667 ft | 216 kts | 173° |
| 2026-05-07 22:37 | 18.31907 | -69.64040 | 2850 ft | 238 kts | 198° |
| 2026-05-07 22:37 | 18.30613 | -69.65188 | 3077 ft | 256 kts | 240° |
| 2026-05-07 22:37 | 18.30233 | -69.67040 | 3355 ft | 271 kts | 278° |
| 2026-05-07 22:38 | 18.30855 | -69.68930 | 3789 ft | 276 kts | 297° |
| 2026-05-07 22:38 | 18.31590 | -69.70815 | 4360 ft | 282 kts | 288° |
| 2026-05-07 22:38 | 18.31999 | -69.72826 | 4900 ft | 277 kts | 278° |
| 2026-05-07 22:38 | 18.32074 | -69.74866 | 4951 ft | 284 kts | 268° |
| 2026-05-07 22:39 | 18.31806 | -69.76942 | 4977 ft | 287 kts | 259° |
| 2026-05-07 22:39 | 18.31654 | -69.79019 | 4983 ft | 286 kts | 284° |
| 2026-05-07 22:39 | 18.32377 | -69.80895 | 5577 ft | 281 kts | 296° |
| 2026-05-07 22:39 | 18.32935 | -69.82870 | 6192 ft | 284 kts | 281° |
| 2026-05-07 22:40 | 18.33211 | -69.84940 | 6774 ft | 287 kts | 280° |
| 2026-05-07 22:40 | 18.33480 | -69.87032 | 7354 ft | 289 kts | 279° |
| 2026-05-07 22:40 | 18.33734 | -69.89134 | 8020 ft | 290 kts | 279° |
| 2026-05-07 22:40 | 18.33972 | -69.91254 | 8637 ft | 293 kts | 278° |
| 2026-05-07 22:41 | 18.34199 | -69.93385 | 9303 ft | 294 kts | 278° |
| 2026-05-07 22:41 | 18.34417 | -69.95524 | 9995 ft | 295 kts | 278° |
| 2026-05-07 22:41 | 18.34631 | -69.97675 | 10369 ft | 308 kts | 277° |
| 2026-05-07 22:41 | 18.34858 | -69.99993 | 10512 ft | 328 kts | 277° |
| 2026-05-07 22:42 | 18.35095 | -70.02444 | 10688 ft | 345 kts | 277° |
| 2026-05-07 22:42 | 18.35337 | -70.04991 | 11110 ft | 352 kts | 277° |
| 2026-05-07 22:42 | 18.35578 | -70.07559 | 11731 ft | 353 kts | 277° |
| 2026-05-07 22:42 | 18.35819 | -70.10135 | 12364 ft | 354 kts | 277° |
| 2026-05-07 22:43 | 18.36061 | -70.12728 | 12946 ft | 357 kts | 277° |
| 2026-05-07 22:43 | 18.36306 | -70.15339 | 13544 ft | 360 kts | 277° |
| 2026-05-07 22:43 | 18.36551 | -70.17972 | 14125 ft | 363 kts | 276° |
| 2026-05-07 22:43 | 18.36796 | -70.20595 | 14630 ft | 367 kts | 277° |
| 2026-05-07 22:44 | 18.37046 | -70.23277 | 15170 ft | 370 kts | 276° |
| 2026-05-07 22:44 | 18.37298 | -70.25987 | 15667 ft | 374 kts | 277° |
| 2026-05-07 22:44 | 18.37551 | -70.28725 | 16209 ft | 378 kts | 277° |
| 2026-05-07 22:44 | 18.37808 | -70.31494 | 16712 ft | 382 kts | 277° |
| 2026-05-07 22:45 | 18.38068 | -70.34291 | 17232 ft | 386 kts | 277° |
| 2026-05-07 22:45 | 18.38329 | -70.37117 | 17755 ft | 390 kts | 277° |
| 2026-05-07 22:45 | 18.38592 | -70.39968 | 18256 ft | 393 kts | 277° |
| 2026-05-07 22:45 | 18.38858 | -70.42849 | 18683 ft | 397 kts | 277° |
| 2026-05-07 22:46 | 18.39122 | -70.45709 | 19103 ft | 400 kts | 277° |
| 2026-05-07 22:46 | 18.39391 | -70.48637 | 19516 ft | 404 kts | 277° |
| 2026-05-07 22:46 | 18.39663 | -70.51597 | 19939 ft | 407 kts | 277° |
| 2026-05-07 22:46 | 18.39936 | -70.54574 | 20354 ft | 410 kts | 277° |
| 2026-05-07 22:47 | 18.40210 | -70.57574 | 20784 ft | 413 kts | 277° |
| 2026-05-07 22:47 | 18.40486 | -70.60593 | 21193 ft | 416 kts | 277° |
| 2026-05-07 22:47 | 18.40763 | -70.63637 | 21579 ft | 419 kts | 277° |
| 2026-05-07 22:47 | 18.41043 | -70.66710 | 21960 ft | 423 kts | 277° |
| 2026-05-07 22:48 | 18.41320 | -70.69759 | 22339 ft | 426 kts | 277° |
| 2026-05-07 22:48 | 18.41602 | -70.72872 | 22724 ft | 429 kts | 277° |
| 2026-05-07 22:48 | 18.41886 | -70.76007 | 23083 ft | 432 kts | 277° |
| 2026-05-07 22:48 | 18.42171 | -70.79164 | 23441 ft | 435 kts | 277° |
| 2026-05-07 22:49 | 18.42458 | -70.82343 | 23758 ft | 438 kts | 277° |
| 2026-05-07 22:49 | 18.42745 | -70.85540 | 24067 ft | 440 kts | 277° |
| 2026-05-07 22:49 | 18.43034 | -70.88756 | 24380 ft | 441 kts | 278° |
| 2026-05-07 22:49 | 18.43323 | -70.91979 | 24703 ft | 443 kts | 278° |
| 2026-05-07 22:50 | 18.43608 | -70.95173 | 25010 ft | 445 kts | 278° |
| 2026-05-07 22:50 | 18.43899 | -70.98424 | 25316 ft | 447 kts | 278° |
| 2026-05-07 22:50 | 18.44190 | -71.01695 | 25623 ft | 449 kts | 278° |
| 2026-05-07 22:50 | 18.44482 | -71.04975 | 25926 ft | 451 kts | 278° |
| 2026-05-07 22:51 | 18.44775 | -71.08270 | 26216 ft | 453 kts | 278° |
| 2026-05-07 22:51 | 18.45068 | -71.11581 | 26509 ft | 455 kts | 278° |
| 2026-05-07 22:51 | 18.45362 | -71.14907 | 26802 ft | 457 kts | 278° |
| 2026-05-07 22:51 | 18.45656 | -71.18245 | 27088 ft | 459 kts | 278° |
| 2026-05-07 22:52 | 18.45953 | -71.21604 | 27361 ft | 461 kts | 278° |
| 2026-05-07 22:52 | 18.46245 | -71.24927 | 27619 ft | 463 kts | 278° |
| 2026-05-07 22:52 | 18.46541 | -71.28304 | 27889 ft | 465 kts | 278° |
| 2026-05-07 22:52 | 18.46839 | -71.31706 | 28163 ft | 467 kts | 278° |
| 2026-05-07 22:53 | 18.47136 | -71.35114 | 28432 ft | 469 kts | 278° |
| 2026-05-07 22:53 | 18.47435 | -71.38538 | 28677 ft | 471 kts | 278° |
| 2026-05-07 22:53 | 18.47734 | -71.41977 | 28927 ft | 473 kts | 278° |
| 2026-05-07 22:53 | 18.48033 | -71.45428 | 29181 ft | 474 kts | 278° |
| 2026-05-07 22:54 | 18.48334 | -71.48898 | 29410 ft | 476 kts | 278° |
| 2026-05-07 22:54 | 18.48634 | -71.52377 | 29644 ft | 478 kts | 278° |
| 2026-05-07 22:54 | 18.48932 | -71.55821 | 29887 ft | 479 kts | 278° |
| 2026-05-07 22:54 | 18.49232 | -71.59320 | 30150 ft | 480 kts | 278° |
| 2026-05-07 22:55 | 18.49531 | -71.62810 | 30485 ft | 477 kts | 278° |
| 2026-05-07 22:55 | 18.49828 | -71.66287 | 30856 ft | 475 kts | 278° |
| 2026-05-07 22:55 | 18.50123 | -71.69739 | 31210 ft | 473 kts | 278° |
| 2026-05-07 22:55 | 18.50417 | -71.73182 | 31508 ft | 472 kts | 278° |
| 2026-05-07 22:56 | 18.50710 | -71.76619 | 31806 ft | 471 kts | 278° |
| 2026-05-07 22:56 | 18.51001 | -71.80049 | 32126 ft | 470 kts | 278° |
| 2026-05-07 22:56 | 18.51288 | -71.83422 | 32460 ft | 468 kts | 278° |
| 2026-05-07 22:56 | 18.51576 | -71.86834 | 32800 ft | 466 kts | 278° |
| 2026-05-07 22:57 | 18.51809 | -71.90235 | 33127 ft | 466 kts | 275° |
| 2026-05-07 22:57 | 18.51818 | -71.93650 | 33440 ft | 466 kts | 271° |
| 2026-05-07 22:57 | 18.51711 | -71.97052 | 33817 ft | 464 kts | 270° |
| 2026-05-07 22:57 | 18.51572 | -72.00437 | 34126 ft | 462 kts | 270° |
| 2026-05-07 22:58 | 18.51439 | -72.03821 | 34368 ft | 461 kts | 271° |
| 2026-05-07 22:58 | 18.51326 | -72.07198 | 34604 ft | 461 kts | 271° |
| 2026-05-07 22:58 | 18.51231 | -72.10524 | 34860 ft | 460 kts | 271° |
| 2026-05-07 22:58 | 18.51149 | -72.13883 | 35140 ft | 458 kts | 272° |
| 2026-05-07 22:59 | 18.51073 | -72.17237 | 35406 ft | 457 kts | 272° |
| 2026-05-07 22:59 | 18.51000 | -72.20571 | 35621 ft | 456 kts | 272° |
| 2026-05-07 22:59 | 18.50928 | -72.23912 | 35859 ft | 455 kts | 272° |
| 2026-05-07 22:59 | 18.50855 | -72.27245 | 35964 ft | 457 kts | 272° |
| 2026-05-07 23:00 | 18.50781 | -72.30603 | 35957 ft | 459 kts | 272° |
| 2026-05-07 23:00 | 18.50628 | -72.37280 | 35969 ft | 458 kts | 272° |
| 2026-05-07 23:01 | 18.50471 | -72.43940 | 35966 ft | 452 kts | 272° |
| 2026-05-07 23:01 | 18.50314 | -72.50550 | 35980 ft | 451 kts | 272° |
| 2026-05-07 23:02 | 18.50156 | -72.57143 | 35980 ft | 450 kts | 272° |
| 2026-05-07 23:02 | 18.49996 | -72.63731 | 35975 ft | 449 kts | 272° |
| 2026-05-07 23:03 | 18.49835 | -72.70267 | 35988 ft | 450 kts | 272° |
| 2026-05-07 23:03 | 18.49670 | -72.76860 | 35988 ft | 451 kts | 272° |
| 2026-05-07 23:04 | 18.49502 | -72.83483 | 35992 ft | 453 kts | 272° |
| 2026-05-07 23:04 | 18.49331 | -72.90129 | 35992 ft | 455 kts | 272° |
| 2026-05-07 23:05 | 18.48760 | -72.96802 | 36002 ft | 459 kts | 265° |
| 2026-05-07 23:05 | 18.47784 | -73.03420 | 36002 ft | 461 kts | 264° |
| 2026-05-07 23:06 | 18.46792 | -73.10108 | 36003 ft | 462 kts | 264° |
| 2026-05-07 23:06 | 18.45854 | -73.16806 | 36006 ft | 463 kts | 265° |
| 2026-05-07 23:07 | 18.44942 | -73.23512 | 36001 ft | 463 kts | 265° |
| 2026-05-07 23:07 | 18.44038 | -73.30172 | 35992 ft | 462 kts | 265° |
| 2026-05-07 23:08 | 18.43127 | -73.36867 | 36002 ft | 461 kts | 265° |
| 2026-05-07 23:08 | 18.42214 | -73.43541 | 36003 ft | 460 kts | 265° |
| 2026-05-07 23:09 | 18.41300 | -73.50199 | 35999 ft | 459 kts | 265° |
| 2026-05-07 23:09 | 18.40393 | -73.56789 | 36012 ft | 457 kts | 265° |
| 2026-05-07 23:10 | 18.39480 | -73.63408 | 36011 ft | 456 kts | 265° |
| 2026-05-07 23:10 | 18.38568 | -73.70001 | 36007 ft | 454 kts | 264° |
| 2026-05-07 23:11 | 18.37657 | -73.76582 | 36012 ft | 454 kts | 264° |
| 2026-05-07 23:11 | 18.36750 | -73.83113 | 36017 ft | 454 kts | 264° |
| 2026-05-07 23:12 | 18.35831 | -73.89703 | 36021 ft | 456 kts | 264° |
| 2026-05-07 23:12 | 18.34907 | -73.96313 | 36022 ft | 458 kts | 264° |
| 2026-05-07 23:13 | 18.33984 | -74.02910 | 36008 ft | 459 kts | 264° |
| 2026-05-07 23:13 | 18.33051 | -74.09551 | 36010 ft | 459 kts | 264° |
| 2026-05-07 23:14 | 18.32115 | -74.16197 | 36025 ft | 460 kts | 264° |
| 2026-05-07 23:14 | 18.31174 | -74.22866 | 35998 ft | 461 kts | 264° |
| 2026-05-07 23:15 | 18.30237 | -74.29486 | 36001 ft | 460 kts | 264° |
| 2026-05-07 23:15 | 18.29292 | -74.36146 | 35998 ft | 460 kts | 264° |
| 2026-05-07 23:16 | 18.28346 | -74.42800 | 36001 ft | 459 kts | 264° |
| 2026-05-07 23:16 | 18.27399 | -74.49439 | 35998 ft | 459 kts | 264° |
| 2026-05-07 23:17 | 18.26452 | -74.56065 | 35996 ft | 458 kts | 264° |
| 2026-05-07 23:17 | 18.25504 | -74.62684 | 35996 ft | 457 kts | 264° |
| 2026-05-07 23:18 | 18.24895 | -74.69258 | 35996 ft | 453 kts | 273° |
| 2026-05-07 23:18 | 18.25095 | -74.75865 | 35997 ft | 452 kts | 274° |
| 2026-05-07 23:19 | 18.25309 | -74.82473 | 35995 ft | 452 kts | 274° |
| 2026-05-07 23:19 | 18.25475 | -74.89077 | 35998 ft | 452 kts | 274° |
| 2026-05-07 23:20 | 18.25612 | -74.95640 | 35997 ft | 452 kts | 274° |
| 2026-05-07 23:20 | 18.25741 | -75.02257 | 35998 ft | 452 kts | 273° |
| 2026-05-07 23:21 | 18.25867 | -75.08875 | 35997 ft | 453 kts | 273° |
| 2026-05-07 23:21 | 18.25993 | -75.15503 | 36001 ft | 453 kts | 273° |
| 2026-05-07 23:22 | 18.26116 | -75.22088 | 35996 ft | 454 kts | 273° |
| 2026-05-07 23:22 | 18.26238 | -75.28722 | 35998 ft | 454 kts | 273° |
| 2026-05-07 23:23 | 18.26357 | -75.35367 | 35997 ft | 454 kts | 273° |
| 2026-05-07 23:23 | 18.26475 | -75.42008 | 35997 ft | 454 kts | 273° |
| 2026-05-07 23:24 | 18.26590 | -75.48650 | 35998 ft | 454 kts | 273° |
| 2026-05-07 23:24 | 18.26702 | -75.55251 | 35996 ft | 454 kts | 273° |
| 2026-05-07 23:25 | 18.26812 | -75.61885 | 35997 ft | 453 kts | 273° |
| 2026-05-07 23:25 | 18.26920 | -75.68512 | 35996 ft | 453 kts | 273° |
| 2026-05-07 23:26 | 18.27025 | -75.75137 | 35996 ft | 452 kts | 273° |
| 2026-05-07 23:26 | 18.27128 | -75.81705 | 35995 ft | 452 kts | 273° |
| 2026-05-07 23:27 | 18.27278 | -75.91612 | 35998 ft | 451 kts | 273° |
| 2026-05-07 23:27 | 18.27375 | -75.98204 | 36000 ft | 451 kts | 273° |
| 2026-05-07 23:28 | 18.27454 | -76.03685 | 35999 ft | 450 kts | 273° |
| 2026-05-07 23:28 | 18.27562 | -76.11338 | 35997 ft | 450 kts | 273° |
| 2026-05-07 23:29 | 18.27652 | -76.17920 | 35996 ft | 450 kts | 272° |
| 2026-05-07 23:29 | 18.27740 | -76.24504 | 35994 ft | 450 kts | 272° |
| 2026-05-07 23:30 | 18.27812 | -76.29972 | 35993 ft | 450 kts | 273° |
| 2026-05-07 23:30 | 18.27896 | -76.36552 | 35992 ft | 450 kts | 273° |
| 2026-05-07 23:31 | 18.27990 | -76.44208 | 35993 ft | 450 kts | 272° |
| 2026-05-07 23:31 | 18.28056 | -76.49682 | 35992 ft | 450 kts | 272° |
| 2026-05-07 23:32 | 18.28134 | -76.56270 | 35987 ft | 450 kts | 272° |
| 2026-05-07 23:32 | 18.28209 | -76.62864 | 35986 ft | 451 kts | 272° |
| 2026-05-07 23:33 | 18.28281 | -76.69460 | 35984 ft | 451 kts | 272° |
| 2026-05-07 23:33 | 18.28363 | -76.77114 | 35983 ft | 451 kts | 272° |
| 2026-05-07 23:34 | 18.28420 | -76.82598 | 35982 ft | 451 kts | 272° |
| 2026-05-07 23:34 | 18.28486 | -76.89188 | 35992 ft | 450 kts | 272° |
| 2026-05-07 23:35 | 18.28550 | -76.95784 | 35984 ft | 451 kts | 272° |
| 2026-05-07 23:35 | 18.28611 | -77.02375 | 35987 ft | 451 kts | 272° |
| 2026-05-07 23:36 | 18.28669 | -77.08921 | 35991 ft | 451 kts | 272° |
| 2026-05-07 23:36 | 18.28726 | -77.15513 | 35993 ft | 450 kts | 272° |
| 2026-05-07 23:37 | 18.28781 | -77.22091 | 35991 ft | 450 kts | 272° |
| 2026-05-07 23:37 | 18.28834 | -77.28666 | 35999 ft | 449 kts | 272° |
| 2026-05-07 23:38 | 18.28882 | -77.35182 | 35996 ft | 448 kts | 272° |
| 2026-05-07 23:38 | 18.28930 | -77.41739 | 35990 ft | 448 kts | 272° |
| 2026-05-07 23:39 | 18.28976 | -77.48288 | 35997 ft | 448 kts | 272° |
| 2026-05-07 23:39 | 18.29019 | -77.54841 | 35993 ft | 448 kts | 272° |
| 2026-05-07 23:40 | 18.29060 | -77.61341 | 35995 ft | 447 kts | 272° |
| 2026-05-07 23:40 | 18.29098 | -77.67882 | 35983 ft | 447 kts | 272° |
| 2026-05-07 23:41 | 18.29135 | -77.74423 | 35994 ft | 446 kts | 272° |
| 2026-05-07 23:41 | 18.29169 | -77.80953 | 35992 ft | 446 kts | 272° |
| 2026-05-07 23:42 | 18.29201 | -77.87487 | 35978 ft | 446 kts | 272° |
| 2026-05-07 23:42 | 18.29231 | -77.93972 | 35975 ft | 446 kts | 272° |
| 2026-05-07 23:43 | 18.29258 | -78.00502 | 35975 ft | 446 kts | 272° |
| 2026-05-07 23:43 | 18.29284 | -78.07038 | 35979 ft | 447 kts | 272° |
| 2026-05-07 23:44 | 18.29307 | -78.13571 | 35979 ft | 447 kts | 272° |
| 2026-05-07 23:44 | 18.29328 | -78.20060 | 35985 ft | 447 kts | 272° |
| 2026-05-07 23:45 | 18.29347 | -78.26601 | 35984 ft | 447 kts | 271° |
| 2026-05-07 23:45 | 18.29363 | -78.33141 | 35985 ft | 447 kts | 271° |
| 2026-05-07 23:46 | 18.29377 | -78.39685 | 35986 ft | 448 kts | 271° |
| 2026-05-07 23:46 | 18.29389 | -78.46238 | 35987 ft | 448 kts | 272° |
| 2026-05-07 23:47 | 18.29399 | -78.52746 | 35985 ft | 448 kts | 271° |
| 2026-05-07 23:47 | 18.29407 | -78.59296 | 35987 ft | 448 kts | 271° |
| 2026-05-07 23:48 | 18.29412 | -78.65846 | 35985 ft | 448 kts | 271° |
| 2026-05-07 23:48 | 18.29415 | -78.72359 | 35989 ft | 448 kts | 271° |
| 2026-05-07 23:49 | 18.29416 | -78.78908 | 35990 ft | 448 kts | 271° |
| 2026-05-07 23:49 | 18.29415 | -78.85462 | 35989 ft | 448 kts | 271° |
| 2026-05-07 23:50 | 18.29411 | -78.92011 | 35989 ft | 448 kts | 271° |
| 2026-05-07 23:50 | 18.29406 | -78.98560 | 35989 ft | 448 kts | 271° |
| 2026-05-07 23:51 | 18.29390 | -79.05066 | 35992 ft | 448 kts | 270° |
| 2026-05-07 23:51 | 18.29233 | -79.11621 | 35994 ft | 448 kts | 270° |
| 2026-05-07 23:52 | 18.29024 | -79.18170 | 35991 ft | 448 kts | 270° |
| 2026-05-07 23:52 | 18.28823 | -79.24722 | 35992 ft | 448 kts | 270° |
| 2026-05-07 23:53 | 18.28634 | -79.31226 | 35991 ft | 448 kts | 270° |
| 2026-05-07 23:53 | 18.28447 | -79.37778 | 35991 ft | 448 kts | 270° |
| 2026-05-07 23:54 | 18.28258 | -79.44323 | 35991 ft | 448 kts | 270° |
| 2026-05-07 23:54 | 18.28067 | -79.50870 | 35989 ft | 447 kts | 270° |
| 2026-05-07 23:55 | 18.27875 | -79.57368 | 35987 ft | 447 kts | 270° |
| 2026-05-07 23:55 | 18.27680 | -79.63907 | 35986 ft | 447 kts | 270° |
| 2026-05-07 23:56 | 18.27482 | -79.70451 | 35989 ft | 447 kts | 270° |
| 2026-05-07 23:56 | 18.27282 | -79.76988 | 35989 ft | 447 kts | 270° |
| 2026-05-07 23:57 | 18.27081 | -79.83481 | 35991 ft | 447 kts | 270° |
| 2026-05-07 23:57 | 18.26877 | -79.90016 | 35988 ft | 447 kts | 270° |
| 2026-05-07 23:58 | 18.26670 | -79.96555 | 35989 ft | 447 kts | 270° |
| 2026-05-07 23:58 | 18.26461 | -80.03086 | 35989 ft | 447 kts | 270° |
| 2026-05-07 23:59 | 18.26252 | -80.09579 | 35989 ft | 447 kts | 270° |
| 2026-05-07 23:59 | 18.26039 | -80.16109 | 35989 ft | 447 kts | 270° |
| 2026-05-08 00:00 | 18.25823 | -80.22637 | 35987 ft | 447 kts | 270° |
| 2026-05-08 00:00 | 18.25606 | -80.29168 | 35990 ft | 446 kts | 270° |
| 2026-05-08 00:01 | 18.25386 | -80.35693 | 35986 ft | 447 kts | 270° |
| 2026-05-08 00:01 | 18.25166 | -80.42176 | 35987 ft | 447 kts | 270° |
| 2026-05-08 00:02 | 18.24942 | -80.48709 | 35986 ft | 447 kts | 270° |
| 2026-05-08 00:02 | 18.24716 | -80.55236 | 35985 ft | 447 kts | 270° |
| 2026-05-08 00:03 | 18.24487 | -80.61764 | 35987 ft | 447 kts | 270° |
| 2026-05-08 00:03 | 18.24258 | -80.68255 | 35987 ft | 447 kts | 270° |
| 2026-05-08 00:04 | 18.24025 | -80.74783 | 35987 ft | 447 kts | 270° |
| 2026-05-08 00:04 | 18.23789 | -80.81317 | 35986 ft | 447 kts | 270° |
| 2026-05-08 00:05 | 18.23552 | -80.87846 | 35989 ft | 447 kts | 270° |
| 2026-05-08 00:05 | 18.23312 | -80.94380 | 35985 ft | 447 kts | 270° |
| 2026-05-08 00:06 | 18.23072 | -81.00863 | 35987 ft | 447 kts | 270° |
| 2026-05-08 00:06 | 18.22828 | -81.07389 | 35982 ft | 447 kts | 270° |
| 2026-05-08 00:07 | 18.22582 | -81.13915 | 35982 ft | 447 kts | 270° |
| 2026-05-08 00:07 | 18.22333 | -81.20447 | 35981 ft | 447 kts | 269° |
| 2026-05-08 00:08 | 18.22085 | -81.26929 | 35978 ft | 447 kts | 269° |
| 2026-05-08 00:08 | 18.21832 | -81.33455 | 35985 ft | 446 kts | 269° |
| 2026-05-08 00:09 | 18.21577 | -81.39974 | 35984 ft | 446 kts | 269° |
| 2026-05-08 00:09 | 18.21320 | -81.46490 | 35981 ft | 446 kts | 269° |
| 2026-05-08 00:10 | 18.21063 | -81.52965 | 35986 ft | 446 kts | 269° |
| 2026-05-08 00:10 | 18.20802 | -81.59475 | 35984 ft | 446 kts | 269° |
| 2026-05-08 00:11 | 18.20539 | -81.65983 | 35977 ft | 445 kts | 269° |
| 2026-05-08 00:11 | 18.20273 | -81.72493 | 35983 ft | 445 kts | 269° |
| 2026-05-08 00:12 | 18.20006 | -81.78995 | 35977 ft | 445 kts | 269° |
| 2026-05-08 00:12 | 18.19739 | -81.85449 | 35981 ft | 445 kts | 269° |
| 2026-05-08 00:13 | 18.19467 | -81.91947 | 35984 ft | 444 kts | 269° |
| 2026-05-08 00:13 | 18.19194 | -81.98436 | 35984 ft | 444 kts | 269° |
| 2026-05-08 00:14 | 18.18919 | -82.04928 | 35983 ft | 444 kts | 269° |
| 2026-05-08 00:14 | 18.18643 | -82.11368 | 35976 ft | 444 kts | 269° |
| 2026-05-08 00:15 | 18.18363 | -82.17852 | 35984 ft | 444 kts | 269° |
| 2026-05-08 00:15 | 18.18082 | -82.24333 | 35981 ft | 444 kts | 269° |
| 2026-05-08 00:16 | 18.17798 | -82.30814 | 35981 ft | 444 kts | 269° |
| 2026-05-08 00:16 | 18.17512 | -82.37300 | 35979 ft | 444 kts | 269° |
| 2026-05-08 00:17 | 18.17225 | -82.43741 | 35980 ft | 444 kts | 269° |
| 2026-05-08 00:17 | 18.16935 | -82.50232 | 35978 ft | 444 kts | 269° |
| 2026-05-08 00:18 | 18.16642 | -82.56718 | 35981 ft | 444 kts | 269° |
| 2026-05-08 00:18 | 18.16347 | -82.63202 | 35978 ft | 444 kts | 269° |
| 2026-05-08 00:19 | 18.16052 | -82.69649 | 35974 ft | 444 kts | 269° |
| 2026-05-08 00:19 | 18.15752 | -82.76130 | 35979 ft | 444 kts | 269° |
| 2026-05-08 00:20 | 18.15451 | -82.82612 | 35984 ft | 444 kts | 269° |
| 2026-05-08 00:20 | 18.15148 | -82.89096 | 35975 ft | 444 kts | 269° |
| 2026-05-08 00:21 | 18.14844 | -82.95531 | 35974 ft | 444 kts | 269° |
| 2026-05-08 00:21 | 18.14536 | -83.02010 | 35966 ft | 443 kts | 269° |
| 2026-05-08 00:22 | 18.14227 | -83.08481 | 35976 ft | 443 kts | 269° |
| 2026-05-08 00:22 | 18.13915 | -83.14949 | 35969 ft | 443 kts | 269° |
| 2026-05-08 00:23 | 18.13602 | -83.21415 | 35979 ft | 443 kts | 269° |
| 2026-05-08 00:23 | 18.13288 | -83.27831 | 35972 ft | 442 kts | 269° |
| 2026-05-08 00:24 | 18.12971 | -83.34291 | 35972 ft | 442 kts | 269° |
| 2026-05-08 00:24 | 18.12652 | -83.40739 | 35962 ft | 442 kts | 269° |
| 2026-05-08 00:25 | 18.12332 | -83.47146 | 35963 ft | 441 kts | 269° |
| 2026-05-08 00:25 | 18.12009 | -83.53584 | 35971 ft | 441 kts | 269° |
| 2026-05-08 00:26 | 18.11684 | -83.60025 | 35969 ft | 441 kts | 269° |
| 2026-05-08 00:26 | 18.11357 | -83.66456 | 35969 ft | 441 kts | 269° |
| 2026-05-08 00:27 | 18.11028 | -83.72885 | 35973 ft | 440 kts | 269° |
| 2026-05-08 00:27 | 18.10699 | -83.79269 | 35966 ft | 440 kts | 269° |
| 2026-05-08 00:28 | 18.10366 | -83.85690 | 35965 ft | 440 kts | 269° |
| 2026-05-08 00:28 | 18.10032 | -83.92106 | 35965 ft | 440 kts | 269° |
| 2026-05-08 00:29 | 18.09695 | -83.98521 | 35974 ft | 440 kts | 269° |
| 2026-05-08 00:29 | 18.09358 | -84.04895 | 35967 ft | 440 kts | 269° |
| 2026-05-08 00:30 | 18.09017 | -84.11312 | 35960 ft | 439 kts | 268° |
| 2026-05-08 00:30 | 18.08674 | -84.17718 | 35962 ft | 439 kts | 268° |
| 2026-05-08 00:31 | 18.08330 | -84.24126 | 35963 ft | 439 kts | 268° |
| 2026-05-08 00:31 | 18.07982 | -84.30534 | 35964 ft | 439 kts | 268° |
| 2026-05-08 00:32 | 18.07636 | -84.36896 | 35965 ft | 439 kts | 269° |
| 2026-05-08 00:32 | 18.07285 | -84.43297 | 35959 ft | 439 kts | 268° |
| 2026-05-08 00:33 | 18.06931 | -84.49706 | 35960 ft | 439 kts | 268° |
| 2026-05-08 00:33 | 18.06576 | -84.56104 | 35958 ft | 439 kts | 268° |
| 2026-05-08 00:34 | 18.06219 | -84.62504 | 35957 ft | 439 kts | 268° |
| 2026-05-08 00:34 | 18.05862 | -84.68861 | 35957 ft | 439 kts | 268° |
| 2026-05-08 00:35 | 18.05501 | -84.75257 | 35960 ft | 438 kts | 268° |
| 2026-05-08 00:35 | 18.05138 | -84.81654 | 35953 ft | 438 kts | 268° |
| 2026-05-08 00:36 | 18.04772 | -84.88046 | 35950 ft | 438 kts | 268° |
| 2026-05-08 00:36 | 18.04405 | -84.94441 | 35948 ft | 438 kts | 268° |
| 2026-05-08 00:37 | 18.04038 | -85.00786 | 35950 ft | 438 kts | 268° |
| 2026-05-08 00:38 | 18.03481 | -85.10360 | 35945 ft | 438 kts | 268° |
| 2026-05-08 00:38 | 18.03106 | -85.16745 | 35957 ft | 437 kts | 268° |
| 2026-05-08 00:39 | 18.02731 | -85.23123 | 35935 ft | 438 kts | 268° |
| 2026-05-08 00:39 | 18.02355 | -85.29457 | 35944 ft | 437 kts | 268° |
| 2026-05-08 00:40 | 18.01975 | -85.35837 | 35937 ft | 437 kts | 268° |
| 2026-05-08 00:40 | 18.01593 | -85.42206 | 35954 ft | 437 kts | 268° |
| 2026-05-08 00:41 | 18.01209 | -85.48578 | 35944 ft | 437 kts | 268° |
| 2026-05-08 00:41 | 18.00826 | -85.54899 | 35953 ft | 436 kts | 268° |
| 2026-05-08 00:42 | 18.00438 | -85.61265 | 35936 ft | 437 kts | 268° |
| 2026-05-08 00:42 | 18.00048 | -85.67631 | 35941 ft | 437 kts | 268° |
| 2026-05-08 00:43 | 17.99655 | -85.74006 | 35931 ft | 437 kts | 268° |
| 2026-05-08 00:43 | 17.99261 | -85.80379 | 35945 ft | 437 kts | 268° |
| 2026-05-08 00:44 | 17.98867 | -85.86706 | 35931 ft | 437 kts | 268° |
| 2026-05-08 00:44 | 17.98468 | -85.93073 | 35929 ft | 437 kts | 268° |
| 2026-05-08 00:45 | 17.98068 | -85.99442 | 35933 ft | 437 kts | 268° |
| 2026-05-08 00:45 | 17.97665 | -86.05817 | 35927 ft | 437 kts | 268° |
| 2026-05-08 00:46 | 17.97262 | -86.12147 | 35927 ft | 437 kts | 268° |
| 2026-05-08 00:46 | 17.96855 | -86.18517 | 35925 ft | 437 kts | 267° |
| 2026-05-08 00:47 | 17.96446 | -86.24888 | 35932 ft | 437 kts | 268° |
| 2026-05-08 00:47 | 17.96035 | -86.31259 | 35915 ft | 437 kts | 267° |
| 2026-05-08 00:48 | 17.95625 | -86.37583 | 35926 ft | 437 kts | 268° |
| 2026-05-08 00:48 | 17.95210 | -86.43945 | 35918 ft | 437 kts | 268° |
| 2026-05-08 00:49 | 17.94792 | -86.50316 | 35921 ft | 437 kts | 267° |
| 2026-05-08 00:49 | 17.94373 | -86.56679 | 35915 ft | 437 kts | 268° |
| 2026-05-08 00:50 | 17.93955 | -86.62999 | 35926 ft | 437 kts | 267° |
| 2026-05-08 00:50 | 17.93532 | -86.69364 | 35921 ft | 437 kts | 267° |
| 2026-05-08 00:51 | 17.93107 | -86.75729 | 35930 ft | 437 kts | 267° |
| 2026-05-08 00:51 | 17.92679 | -86.82096 | 35906 ft | 438 kts | 267° |
| 2026-05-08 00:52 | 17.92253 | -86.88435 | 35919 ft | 438 kts | 268° |
| 2026-05-08 00:52 | 17.92378 | -86.94801 | 35920 ft | 436 kts | 275° |
| 2026-05-08 00:53 | 17.92823 | -87.01160 | 35911 ft | 437 kts | 275° |
| 2026-05-08 00:53 | 17.93249 | -87.07520 | 35922 ft | 437 kts | 275° |
| 2026-05-08 00:54 | 17.93637 | -87.13888 | 35921 ft | 437 kts | 274° |
| 2026-05-08 00:54 | 17.94006 | -87.20269 | 35924 ft | 438 kts | 274° |
| 2026-05-08 00:55 | 17.94366 | -87.26608 | 35928 ft | 438 kts | 274° |
| 2026-05-08 00:55 | 17.94727 | -87.32994 | 35911 ft | 439 kts | 274° |
| 2026-05-08 00:56 | 17.95087 | -87.39385 | 35912 ft | 438 kts | 274° |
| 2026-05-08 00:56 | 17.95446 | -87.45780 | 35920 ft | 438 kts | 274° |
| 2026-05-08 00:57 | 17.95800 | -87.52127 | 35917 ft | 438 kts | 274° |
| 2026-05-08 00:57 | 17.96154 | -87.58519 | 35915 ft | 438 kts | 274° |
| 2026-05-08 00:58 | 17.96505 | -87.64902 | 35908 ft | 438 kts | 274° |
| 2026-05-08 00:58 | 17.96855 | -87.71282 | 35903 ft | 438 kts | 274° |
| 2026-05-08 00:59 | 17.97200 | -87.77620 | 35910 ft | 437 kts | 274° |
| 2026-05-08 00:59 | 17.97545 | -87.83995 | 35920 ft | 437 kts | 274° |
| 2026-05-08 01:00 | 17.97887 | -87.90368 | 35902 ft | 437 kts | 274° |
| 2026-05-08 01:00 | 17.98228 | -87.96743 | 35904 ft | 437 kts | 274° |
| 2026-05-08 01:01 | 17.98567 | -88.03115 | 35905 ft | 437 kts | 274° |
| 2026-05-08 01:01 | 17.98901 | -88.09442 | 35901 ft | 437 kts | 274° |
| 2026-05-08 01:02 | 17.99235 | -88.15818 | 35917 ft | 437 kts | 274° |
| 2026-05-08 01:02 | 17.99567 | -88.22191 | 35911 ft | 437 kts | 274° |
| 2026-05-08 01:03 | 17.99898 | -88.28574 | 35902 ft | 438 kts | 273° |
| 2026-05-08 01:03 | 18.00224 | -88.34915 | 35902 ft | 438 kts | 274° |
| 2026-05-08 01:04 | 18.00551 | -88.41301 | 35906 ft | 438 kts | 274° |
| 2026-05-08 01:04 | 18.00876 | -88.47697 | 35902 ft | 438 kts | 274° |
| 2026-05-08 01:05 | 18.01199 | -88.54087 | 35911 ft | 438 kts | 273° |
| 2026-05-08 01:05 | 18.01517 | -88.60440 | 35902 ft | 438 kts | 273° |
| 2026-05-08 01:06 | 18.01836 | -88.66830 | 35910 ft | 438 kts | 273° |
| 2026-05-08 01:06 | 18.02152 | -88.73221 | 35903 ft | 438 kts | 273° |
| 2026-05-08 01:07 | 18.02466 | -88.79608 | 35911 ft | 438 kts | 273° |
| 2026-05-08 01:07 | 18.02778 | -88.85991 | 35910 ft | 437 kts | 273° |
| 2026-05-08 01:08 | 18.03085 | -88.92328 | 35907 ft | 437 kts | 273° |
| 2026-05-08 01:08 | 18.03393 | -88.98710 | 35910 ft | 437 kts | 273° |
| 2026-05-08 01:09 | 18.03698 | -89.05082 | 35908 ft | 437 kts | 273° |
| 2026-05-08 01:09 | 18.04001 | -89.11452 | 35913 ft | 436 kts | 273° |
| 2026-05-08 01:10 | 18.04299 | -89.17775 | 35909 ft | 436 kts | 273° |
| 2026-05-08 01:10 | 18.04598 | -89.24143 | 35896 ft | 436 kts | 273° |
| 2026-05-08 01:11 | 18.04894 | -89.30507 | 35903 ft | 436 kts | 273° |
| 2026-05-08 01:11 | 18.05188 | -89.36874 | 35907 ft | 436 kts | 273° |
| 2026-05-08 01:12 | 18.05478 | -89.43197 | 35906 ft | 436 kts | 273° |
| 2026-05-08 01:12 | 18.05768 | -89.49564 | 35909 ft | 436 kts | 273° |
| 2026-05-08 01:13 | 18.06057 | -89.55937 | 35895 ft | 437 kts | 273° |
| 2026-05-08 01:13 | 18.06342 | -89.62307 | 35898 ft | 437 kts | 273° |
| 2026-05-08 01:14 | 18.06625 | -89.68641 | 35896 ft | 437 kts | 273° |
| 2026-05-08 01:14 | 18.06907 | -89.75016 | 35897 ft | 437 kts | 273° |
| 2026-05-08 01:15 | 18.07187 | -89.81398 | 35892 ft | 437 kts | 273° |
| 2026-05-08 01:15 | 18.07465 | -89.87773 | 35881 ft | 437 kts | 273° |
| 2026-05-08 01:16 | 18.07741 | -89.94157 | 35887 ft | 437 kts | 273° |
| 2026-05-08 01:16 | 18.08013 | -90.00491 | 35879 ft | 437 kts | 273° |
| 2026-05-08 01:17 | 18.08284 | -90.06865 | 35883 ft | 437 kts | 273° |
| 2026-05-08 01:17 | 18.08554 | -90.13244 | 35879 ft | 437 kts | 273° |
| 2026-05-08 01:18 | 18.08821 | -90.19620 | 35866 ft | 437 kts | 273° |
| 2026-05-08 01:18 | 18.09087 | -90.26003 | 35872 ft | 437 kts | 273° |
| 2026-05-08 01:19 | 18.09349 | -90.32339 | 35862 ft | 437 kts | 273° |
| 2026-05-08 01:19 | 18.09610 | -90.38721 | 35866 ft | 437 kts | 273° |
| 2026-05-08 01:20 | 18.09870 | -90.45112 | 35851 ft | 438 kts | 273° |
| 2026-05-08 01:20 | 18.10127 | -90.51501 | 35851 ft | 438 kts | 273° |
| 2026-05-08 01:21 | 18.10381 | -90.57850 | 35859 ft | 438 kts | 273° |
| 2026-05-08 01:21 | 18.10634 | -90.64247 | 35842 ft | 438 kts | 272° |
| 2026-05-08 01:22 | 18.10886 | -90.70654 | 35851 ft | 438 kts | 273° |
| 2026-05-08 01:22 | 18.11136 | -90.77063 | 35832 ft | 439 kts | 272° |
| 2026-05-08 01:23 | 18.11382 | -90.83430 | 35839 ft | 439 kts | 272° |
| 2026-05-08 01:23 | 18.11627 | -90.89839 | 35842 ft | 439 kts | 272° |
| 2026-05-08 01:24 | 18.11871 | -90.96249 | 35829 ft | 439 kts | 272° |
| 2026-05-08 01:24 | 18.12112 | -91.02662 | 35834 ft | 439 kts | 272° |
| 2026-05-08 01:25 | 18.12351 | -91.09066 | 35824 ft | 439 kts | 272° |
| 2026-05-08 01:25 | 18.12586 | -91.15425 | 35828 ft | 438 kts | 272° |
| 2026-05-08 01:26 | 18.12821 | -91.21829 | 35826 ft | 438 kts | 272° |
| 2026-05-08 01:26 | 18.13053 | -91.28224 | 35821 ft | 438 kts | 272° |
| 2026-05-08 01:27 | 18.13283 | -91.34617 | 35825 ft | 438 kts | 272° |
| 2026-05-08 01:27 | 18.13510 | -91.40971 | 35812 ft | 438 kts | 272° |
| 2026-05-08 01:28 | 18.13735 | -91.47361 | 35815 ft | 437 kts | 272° |
| 2026-05-08 01:28 | 18.13959 | -91.53749 | 35807 ft | 437 kts | 272° |
| 2026-05-08 01:29 | 18.14181 | -91.60141 | 35807 ft | 437 kts | 272° |
| 2026-05-08 01:29 | 18.14400 | -91.66528 | 35808 ft | 437 kts | 272° |
| 2026-05-08 01:30 | 18.14616 | -91.72873 | 35802 ft | 437 kts | 272° |
| 2026-05-08 01:30 | 18.14831 | -91.79267 | 35804 ft | 437 kts | 272° |
| 2026-05-08 01:31 | 18.15044 | -91.85657 | 35796 ft | 438 kts | 272° |
| 2026-05-08 01:31 | 18.15255 | -91.92054 | 35810 ft | 438 kts | 272° |
| 2026-05-08 01:32 | 18.15463 | -91.98404 | 35805 ft | 438 kts | 272° |
| 2026-05-08 01:32 | 18.15670 | -92.04799 | 35809 ft | 438 kts | 272° |
| 2026-05-08 01:33 | 18.15874 | -92.11195 | 35808 ft | 438 kts | 272° |
| 2026-05-08 01:33 | 18.16077 | -92.17598 | 35811 ft | 438 kts | 272° |
| 2026-05-08 01:34 | 18.16278 | -92.23997 | 35809 ft | 438 kts | 272° |
| 2026-05-08 01:34 | 18.16476 | -92.30359 | 35809 ft | 438 kts | 272° |
| 2026-05-08 01:35 | 18.16672 | -92.36760 | 35810 ft | 438 kts | 272° |
| 2026-05-08 01:35 | 18.16866 | -92.43159 | 35813 ft | 438 kts | 272° |
| 2026-05-08 01:36 | 18.17057 | -92.49522 | 35812 ft | 438 kts | 272° |
| 2026-05-08 01:36 | 18.17248 | -92.55922 | 35815 ft | 438 kts | 272° |
| 2026-05-08 01:37 | 18.17436 | -92.62326 | 35811 ft | 438 kts | 272° |
| 2026-05-08 01:37 | 18.17621 | -92.68722 | 35818 ft | 438 kts | 272° |
| 2026-05-08 01:38 | 18.17805 | -92.75129 | 35816 ft | 438 kts | 272° |
| 2026-05-08 01:38 | 18.17986 | -92.81486 | 35828 ft | 438 kts | 272° |
| 2026-05-08 01:39 | 18.18165 | -92.87881 | 35825 ft | 438 kts | 272° |
| 2026-05-08 01:39 | 18.18343 | -92.94284 | 35823 ft | 438 kts | 272° |
| 2026-05-08 01:40 | 18.18518 | -93.00681 | 35822 ft | 438 kts | 272° |
| 2026-05-08 01:40 | 18.18690 | -93.07041 | 35819 ft | 438 kts | 271° |
| 2026-05-08 01:41 | 18.18861 | -93.13434 | 35819 ft | 437 kts | 271° |
| 2026-05-08 01:41 | 18.19030 | -93.19829 | 35818 ft | 437 kts | 271° |
| 2026-05-08 01:42 | 18.19196 | -93.26214 | 35814 ft | 437 kts | 271° |
| 2026-05-08 01:42 | 18.19359 | -93.32548 | 35821 ft | 436 kts | 271° |
| 2026-05-08 01:43 | 18.19521 | -93.38921 | 35814 ft | 436 kts | 271° |
| 2026-05-08 01:43 | 18.19681 | -93.45290 | 35824 ft | 435 kts | 271° |
| 2026-05-08 01:44 | 18.19838 | -93.51648 | 35815 ft | 435 kts | 271° |
| 2026-05-08 01:44 | 18.19993 | -93.58010 | 35818 ft | 435 kts | 271° |
| 2026-05-08 01:45 | 18.20145 | -93.64330 | 35823 ft | 435 kts | 271° |
| 2026-05-08 01:45 | 18.20296 | -93.70688 | 35820 ft | 435 kts | 271° |
| 2026-05-08 01:46 | 18.20446 | -93.77052 | 35826 ft | 435 kts | 271° |
| 2026-05-08 01:46 | 18.20591 | -93.83378 | 35815 ft | 436 kts | 271° |
| 2026-05-08 01:47 | 18.20736 | -93.89748 | 35828 ft | 436 kts | 271° |
| 2026-05-08 01:47 | 18.20880 | -93.96126 | 35823 ft | 437 kts | 271° |
| 2026-05-08 01:48 | 18.21091 | -94.05728 | 35831 ft | 438 kts | 271° |
| 2026-05-08 01:48 | 18.21230 | -94.12141 | 35824 ft | 439 kts | 271° |
| 2026-05-08 01:49 | 18.21366 | -94.18527 | 35827 ft | 440 kts | 271° |
| 2026-05-08 01:49 | 18.21501 | -94.24968 | 35830 ft | 441 kts | 271° |
| 2026-05-08 01:50 | 18.21633 | -94.31419 | 35832 ft | 441 kts | 271° |
| 2026-05-08 01:50 | 18.21764 | -94.37871 | 35840 ft | 441 kts | 271° |
| 2026-05-08 01:51 | 18.21892 | -94.44280 | 35836 ft | 442 kts | 271° |
| 2026-05-08 01:51 | 18.22019 | -94.50737 | 35846 ft | 441 kts | 271° |
| 2026-05-08 01:52 | 18.22143 | -94.57186 | 35838 ft | 441 kts | 271° |
| 2026-05-08 01:52 | 18.22265 | -94.63633 | 35844 ft | 441 kts | 270° |
| 2026-05-08 01:53 | 18.22384 | -94.70029 | 35851 ft | 440 kts | 270° |
| 2026-05-08 01:53 | 18.22502 | -94.76464 | 35854 ft | 440 kts | 270° |
| 2026-05-08 01:54 | 18.22617 | -94.82894 | 35861 ft | 439 kts | 270° |
| 2026-05-08 01:54 | 18.22730 | -94.89319 | 35853 ft | 440 kts | 270° |
| 2026-05-08 01:55 | 18.22841 | -94.95744 | 35863 ft | 439 kts | 270° |
| 2026-05-08 01:55 | 18.22949 | -95.02122 | 35858 ft | 439 kts | 270° |
| 2026-05-08 01:56 | 18.23056 | -95.08550 | 35860 ft | 439 kts | 270° |
| 2026-05-08 01:56 | 18.23160 | -95.14968 | 35856 ft | 439 kts | 270° |
| 2026-05-08 01:57 | 18.23263 | -95.21392 | 35851 ft | 439 kts | 270° |
| 2026-05-08 01:57 | 18.23363 | -95.27770 | 35857 ft | 439 kts | 270° |
| 2026-05-08 01:58 | 18.23461 | -95.34183 | 35838 ft | 439 kts | 270° |
| 2026-05-08 01:58 | 18.23982 | -95.40568 | 35851 ft | 439 kts | 279° |
| 2026-05-08 01:59 | 18.25124 | -95.46878 | 35844 ft | 439 kts | 279° |
| 2026-05-08 01:59 | 18.26267 | -95.53197 | 35842 ft | 439 kts | 279° |
| 2026-05-08 02:00 | 18.27367 | -95.59517 | 35845 ft | 439 kts | 279° |
| 2026-05-08 02:00 | 18.28435 | -95.65798 | 35851 ft | 439 kts | 279° |
| 2026-05-08 02:01 | 18.29504 | -95.72125 | 35848 ft | 439 kts | 278° |
| 2026-05-08 02:01 | 18.30572 | -95.78465 | 35854 ft | 441 kts | 278° |
| 2026-05-08 02:02 | 18.31643 | -95.84835 | 35866 ft | 443 kts | 278° |
| 2026-05-08 02:02 | 18.32712 | -95.91197 | 35866 ft | 446 kts | 278° |
| 2026-05-08 02:03 | 18.33791 | -95.97636 | 35877 ft | 448 kts | 278° |
| 2026-05-08 02:03 | 18.34873 | -96.04100 | 35861 ft | 449 kts | 278° |
| 2026-05-08 02:04 | 18.35953 | -96.10572 | 35866 ft | 448 kts | 278° |
| 2026-05-08 02:04 | 18.37028 | -96.17020 | 35849 ft | 446 kts | 278° |
| 2026-05-08 02:05 | 18.38087 | -96.23387 | 35863 ft | 443 kts | 278° |
| 2026-05-08 02:05 | 18.39143 | -96.29753 | 35868 ft | 440 kts | 278° |
| 2026-05-08 02:06 | 18.40190 | -96.36084 | 35872 ft | 438 kts | 278° |
| 2026-05-08 02:06 | 18.41232 | -96.42388 | 35884 ft | 436 kts | 278° |
| 2026-05-08 02:07 | 18.42268 | -96.48674 | 35885 ft | 435 kts | 278° |
| 2026-05-08 02:07 | 18.43292 | -96.54907 | 35884 ft | 435 kts | 278° |
| 2026-05-08 02:08 | 18.44324 | -96.61194 | 35891 ft | 436 kts | 277° |
| 2026-05-08 02:08 | 18.45355 | -96.67491 | 35882 ft | 437 kts | 278° |
| 2026-05-08 02:09 | 18.46212 | -96.72735 | 35910 ft | 438 kts | 277° |
| 2026-05-08 02:09 | 18.47245 | -96.79066 | 35906 ft | 439 kts | 277° |
| 2026-05-08 02:10 | 18.48445 | -96.86439 | 35949 ft | 440 kts | 277° |
| 2026-05-08 02:10 | 18.48962 | -96.89621 | 35840 ft | 439 kts | 277° |
| 2026-05-08 02:10 | 18.49308 | -96.91752 | 35639 ft | 435 kts | 277° |
| 2026-05-08 02:11 | 18.49807 | -96.94819 | 35409 ft | 427 kts | 277° |
| 2026-05-08 02:11 | 18.50304 | -96.97880 | 35168 ft | 422 kts | 277° |
| 2026-05-08 02:11 | 18.50795 | -97.00916 | 34974 ft | 419 kts | 277° |
| 2026-05-08 02:11 | 18.51285 | -97.03944 | 34759 ft | 418 kts | 277° |
| 2026-05-08 02:12 | 18.51771 | -97.06956 | 34519 ft | 416 kts | 277° |
| 2026-05-08 02:12 | 18.52254 | -97.09955 | 34293 ft | 414 kts | 277° |
| 2026-05-08 02:12 | 18.52735 | -97.12939 | 34071 ft | 413 kts | 277° |
| 2026-05-08 02:12 | 18.53213 | -97.15912 | 33833 ft | 411 kts | 277° |
| 2026-05-08 02:13 | 18.53690 | -97.18879 | 33581 ft | 409 kts | 277° |
| 2026-05-08 02:13 | 18.54164 | -97.21832 | 33327 ft | 408 kts | 277° |
| 2026-05-08 02:13 | 18.54637 | -97.24777 | 33077 ft | 407 kts | 277° |
| 2026-05-08 02:13 | 18.55108 | -97.27717 | 32838 ft | 407 kts | 277° |
| 2026-05-08 02:14 | 18.55578 | -97.30656 | 32577 ft | 406 kts | 277° |
| 2026-05-08 02:14 | 18.56047 | -97.33585 | 32334 ft | 405 kts | 277° |
| 2026-05-08 02:14 | 18.56515 | -97.36511 | 32092 ft | 405 kts | 277° |
| 2026-05-08 02:14 | 18.56975 | -97.39394 | 31880 ft | 404 kts | 277° |
| 2026-05-08 02:15 | 18.57440 | -97.42311 | 31647 ft | 403 kts | 277° |
| 2026-05-08 02:15 | 18.57904 | -97.45224 | 31404 ft | 403 kts | 277° |
| 2026-05-08 02:15 | 18.58368 | -97.48132 | 31175 ft | 402 kts | 277° |
| 2026-05-08 02:15 | 18.58829 | -97.51033 | 30944 ft | 401 kts | 277° |
| 2026-05-08 02:16 | 18.59289 | -97.53929 | 30710 ft | 400 kts | 277° |
| 2026-05-08 02:16 | 18.59748 | -97.56822 | 30483 ft | 399 kts | 277° |
| 2026-05-08 02:16 | 18.60205 | -97.59703 | 30239 ft | 398 kts | 277° |
| 2026-05-08 02:16 | 18.60661 | -97.62580 | 30010 ft | 397 kts | 277° |
| 2026-05-08 02:17 | 18.61109 | -97.65409 | 29749 ft | 396 kts | 277° |
| 2026-05-08 02:17 | 18.61561 | -97.68270 | 29483 ft | 395 kts | 277° |
| 2026-05-08 02:17 | 18.62011 | -97.71123 | 29225 ft | 394 kts | 277° |
| 2026-05-08 02:17 | 18.62460 | -97.73966 | 28969 ft | 392 kts | 277° |
| 2026-05-08 02:18 | 18.62906 | -97.76795 | 28697 ft | 390 kts | 277° |
| 2026-05-08 02:18 | 18.63349 | -97.79607 | 28438 ft | 388 kts | 277° |
| 2026-05-08 02:18 | 18.63790 | -97.82409 | 28175 ft | 386 kts | 277° |
| 2026-05-08 02:18 | 18.64227 | -97.85192 | 27937 ft | 384 kts | 277° |
| 2026-05-08 02:19 | 18.64661 | -97.87961 | 27691 ft | 382 kts | 277° |
| 2026-05-08 02:19 | 18.65094 | -97.90722 | 27416 ft | 381 kts | 277° |
| 2026-05-08 02:19 | 18.65519 | -97.93433 | 27176 ft | 379 kts | 277° |
| 2026-05-08 02:19 | 18.65947 | -97.96170 | 26933 ft | 378 kts | 277° |
| 2026-05-08 02:20 | 18.66374 | -97.98897 | 26694 ft | 377 kts | 276° |
| 2026-05-08 02:20 | 18.66799 | -98.01621 | 26453 ft | 375 kts | 276° |
| 2026-05-08 02:20 | 18.67222 | -98.04331 | 26224 ft | 374 kts | 276° |
| 2026-05-08 02:20 | 18.67643 | -98.07035 | 26029 ft | 373 kts | 276° |
| 2026-05-08 02:21 | 18.68064 | -98.09736 | 25985 ft | 373 kts | 276° |
| 2026-05-08 02:21 | 18.68484 | -98.12440 | 25957 ft | 374 kts | 276° |
| 2026-05-08 02:21 | 18.68904 | -98.15139 | 25955 ft | 373 kts | 276° |
| 2026-05-08 02:21 | 18.69323 | -98.17841 | 25953 ft | 374 kts | 276° |
| 2026-05-08 02:22 | 18.69742 | -98.20546 | 25944 ft | 374 kts | 276° |
| 2026-05-08 02:22 | 18.70162 | -98.23254 | 25941 ft | 374 kts | 276° |
| 2026-05-08 02:22 | 18.70576 | -98.25927 | 25914 ft | 372 kts | 276° |
| 2026-05-08 02:22 | 18.70990 | -98.28594 | 25690 ft | 368 kts | 276° |
| 2026-05-08 02:23 | 18.71401 | -98.31253 | 25346 ft | 367 kts | 276° |
| 2026-05-08 02:23 | 18.71814 | -98.33905 | 24950 ft | 367 kts | 277° |
| 2026-05-08 02:23 | 18.72278 | -98.36557 | 24562 ft | 368 kts | 277° |
| 2026-05-08 02:23 | 18.72768 | -98.39207 | 24197 ft | 368 kts | 278° |
| 2026-05-08 02:24 | 18.73263 | -98.41851 | 23896 ft | 366 kts | 278° |
| 2026-05-08 02:24 | 18.73752 | -98.44474 | 23595 ft | 363 kts | 277° |
| 2026-05-08 02:24 | 18.74236 | -98.47084 | 23241 ft | 362 kts | 277° |
| 2026-05-08 02:24 | 18.74714 | -98.49681 | 22885 ft | 360 kts | 277° |
| 2026-05-08 02:25 | 18.75181 | -98.52233 | 22547 ft | 357 kts | 277° |
| 2026-05-08 02:25 | 18.75650 | -98.54798 | 22207 ft | 355 kts | 277° |
| 2026-05-08 02:25 | 18.76115 | -98.57354 | 21883 ft | 353 kts | 278° |
| 2026-05-08 02:25 | 18.76576 | -98.59886 | 21586 ft | 351 kts | 277° |
| 2026-05-08 02:26 | 18.77034 | -98.62411 | 21248 ft | 349 kts | 278° |
| 2026-05-08 02:26 | 18.77490 | -98.64920 | 20914 ft | 347 kts | 278° |
| 2026-05-08 02:26 | 18.77943 | -98.67414 | 20600 ft | 346 kts | 278° |
| 2026-05-08 02:26 | 18.78393 | -98.69900 | 20348 ft | 343 kts | 278° |
| 2026-05-08 02:27 | 18.78846 | -98.72365 | 20032 ft | 342 kts | 278° |
| 2026-05-08 02:27 | 18.79743 | -98.74749 | 19417 ft | 360 kts | 302° |
| 2026-05-08 02:27 | 18.81543 | -98.76600 | 19023 ft | 367 kts | 326° |
| 2026-05-08 02:27 | 18.83757 | -98.77961 | 18508 ft | 372 kts | 327° |
| 2026-05-08 02:28 | 18.85926 | -98.79385 | 18051 ft | 372 kts | 326° |
| 2026-05-08 02:28 | 18.88107 | -98.80860 | 17609 ft | 371 kts | 325° |
| 2026-05-08 02:28 | 18.90263 | -98.82332 | 17246 ft | 368 kts | 325° |
| 2026-05-08 02:28 | 18.92400 | -98.83796 | 16944 ft | 365 kts | 325° |
| 2026-05-08 02:29 | 18.94520 | -98.85248 | 16591 ft | 362 kts | 325° |
| 2026-05-08 02:29 | 18.96624 | -98.86689 | 16213 ft | 359 kts | 325° |
| 2026-05-08 02:29 | 18.98716 | -98.88121 | 15893 ft | 356 kts | 325° |
| 2026-05-08 02:29 | 19.00788 | -98.89539 | 15553 ft | 354 kts | 324° |
| 2026-05-08 02:30 | 19.02850 | -98.90951 | 15206 ft | 352 kts | 324° |
| 2026-05-08 02:30 | 19.04889 | -98.92347 | 14908 ft | 346 kts | 324° |
| 2026-05-08 02:30 | 19.06885 | -98.93713 | 14582 ft | 337 kts | 324° |
| 2026-05-08 02:30 | 19.08791 | -98.95017 | 14407 ft | 324 kts | 324° |
| 2026-05-08 02:31 | 19.10644 | -98.96286 | 14271 ft | 311 kts | 323° |
| 2026-05-08 02:31 | 19.12426 | -98.97507 | 14163 ft | 300 kts | 324° |
| 2026-05-08 02:31 | 19.14137 | -98.98680 | 14047 ft | 287 kts | 324° |
| 2026-05-08 02:31 | 19.15780 | -98.99806 | 13968 ft | 276 kts | 324° |
| 2026-05-08 02:32 | 19.17360 | -99.00888 | 13898 ft | 264 kts | 323° |
| 2026-05-08 02:32 | 19.18801 | -99.02026 | 13945 ft | 257 kts | 313° |
| 2026-05-08 02:32 | 19.20033 | -99.03380 | 13958 ft | 256 kts | 315° |
| 2026-05-08 02:32 | 19.21565 | -99.04359 | 13971 ft | 261 kts | 338° |
| 2026-05-08 02:33 | 19.23377 | -99.04641 | 13983 ft | 268 kts | 1° |
| 2026-05-08 02:33 | 19.25194 | -99.04176 | 13974 ft | 271 kts | 25° |
| 2026-05-08 02:33 | 19.26710 | -99.03034 | 13959 ft | 268 kts | 48° |
| 2026-05-08 02:33 | 19.27841 | -99.01548 | 13920 ft | 257 kts | 52° |
| 2026-05-08 02:34 | 19.29197 | -99.00419 | 13780 ft | 244 kts | 16° |
| 2026-05-08 02:34 | 19.30798 | -99.00349 | 13635 ft | 226 kts | 343° |
| 2026-05-08 02:34 | 19.32161 | -99.01074 | 13261 ft | 216 kts | 314° |
| 2026-05-08 02:34 | 19.33004 | -99.02337 | 12838 ft | 210 kts | 287° |
| 2026-05-08 02:35 | 19.33273 | -99.03811 | 12564 ft | 197 kts | 264° |
| 2026-05-08 02:35 | 19.33161 | -99.05205 | 12373 ft | 186 kts | 258° |
| 2026-05-08 02:35 | 19.32983 | -99.06607 | 11795 ft | 200 kts | 259° |
| 2026-05-08 02:35 | 19.32793 | -99.08080 | 11395 ft | 203 kts | 259° |
| 2026-05-08 02:36 | 19.32611 | -99.09518 | 11163 ft | 197 kts | 261° |
| 2026-05-08 02:36 | 19.32432 | -99.10953 | 10973 ft | 196 kts | 262° |
| 2026-05-08 02:36 | 19.32255 | -99.12389 | 10804 ft | 198 kts | 262° |
| 2026-05-08 02:36 | 19.32078 | -99.13830 | 10635 ft | 198 kts | 263° |
| 2026-05-08 02:37 | 19.31901 | -99.15274 | 10448 ft | 198 kts | 263° |
| 2026-05-08 02:37 | 19.31725 | -99.16719 | 10268 ft | 197 kts | 263° |
| 2026-05-08 02:37 | 19.31563 | -99.18156 | 10104 ft | 196 kts | 269° |
| 2026-05-08 02:37 | 19.31955 | -99.19466 | 9993 ft | 189 kts | 319° |
| 2026-05-08 02:38 | 19.33138 | -99.19940 | 10004 ft | 187 kts | 8° |
| 2026-05-08 02:38 | 19.34352 | -99.19507 | 10007 ft | 184 kts | 27° |
| 2026-05-08 02:38 | 19.35536 | -99.19236 | 9981 ft | 173 kts | 347° |
| 2026-05-08 02:38 | 19.36663 | -99.19687 | 10006 ft | 180 kts | 345° |
| 2026-05-08 02:39 | 19.37843 | -99.19614 | 10012 ft | 171 kts | 33° |
| 2026-05-08 02:39 | 19.38482 | -99.18605 | 10033 ft | 172 kts | 84° |
| 2026-05-08 02:39 | 19.38410 | -99.17337 | 10056 ft | 175 kts | 89° |
| 2026-05-08 02:39 | 19.38722 | -99.16100 | 10050 ft | 174 kts | 60° |
| 2026-05-08 02:40 | 19.39256 | -99.15035 | 9805 ft | 159 kts | 62° |
| 2026-05-08 02:40 | 19.39780 | -99.13974 | 9333 ft | 165 kts | 62° |
| 2026-05-08 02:40 | 19.40317 | -99.12908 | 9001 ft | 163 kts | 60° |
| 2026-05-08 02:40 | 19.40876 | -99.11850 | 8433 ft | 165 kts | 58° |
| 2026-05-08 02:41 | 19.41438 | -99.10832 | 7925 ft | 155 kts | 57° |
| 2026-05-08 02:41 | 19.41979 | -99.09863 | 7574 ft | 154 kts | 57° |
| 2026-05-08 02:41 | 19.42539 | -99.08877 | 7542 ft | 149 kts | 58° |
| 2026-05-08 02:41 | 19.43034 | -99.07966 | 7304 ft | 136 kts | 59° |
| 2026-05-08 02:42 | 19.43464 | -99.07223 | 7301 ft | 105 kts | 59° |
| 2026-05-08 02:42 | 19.43763 | -99.06685 | 7302 ft | 74 kts | 59° |
| 2026-05-08 02:42 | 19.43913 | -99.06501 | 7302 ft | 15 kts | 27° |
| 2026-05-08 02:42 | 19.43946 | -99.06482 | 7302 ft | 3 kts | 27° |
| 2026-05-08 02:43 | 19.43978 | -99.06468 | 7302 ft | 1 kts | 355° |
| 2026-05-08 02:43 | 19.43990 | -99.06471 | 7302 ft | 4 kts | 348° |
| 2026-05-08 02:43 | 19.44003 | -99.06466 | 7302 ft | 0 kts | 31° |
| 2026-05-08 02:43 | 19.44006 | -99.06463 | 7302 ft | 0 kts | 36° |
| 2026-05-08 02:44 | 19.44019 | -99.06451 | 7302 ft | 5 kts | 43° |
| 2026-05-08 02:44 | 19.44056 | -99.06422 | 7302 ft | 9 kts | 30° |
| 2026-05-08 02:44 | 19.44127 | -99.06382 | 7302 ft | 14 kts | 28° |
| 2026-05-08 02:44 | 19.44165 | -99.06360 | 7302 ft | 2 kts | 26° |
| 2026-05-08 02:45 | 19.44166 | -99.06359 | 7302 ft | 0 kts | 26° |
| 2026-05-08 02:46 | 19.44167 | -99.06359 | 7302 ft | 0 kts | 26° |
| 2026-05-08 02:46 | 19.44202 | -99.06341 | 7302 ft | 12 kts | 25° |
| 2026-05-08 02:46 | 19.44257 | -99.06315 | 7302 ft | 4 kts | 22° |
| 2026-05-08 02:46 | 19.44303 | -99.06295 | 7301 ft | 10 kts | 22° |
| 2026-05-08 02:47 | 19.44373 | -99.06293 | 7302 ft | 8 kts | 339° |
| 2026-05-08 02:47 | 19.44413 | -99.06320 | 7302 ft | 0 kts | 316° |
| 2026-05-08 02:47 | 19.44413 | -99.06321 | 7302 ft | 1 kts | 316° |
| 2026-05-08 02:47 | 19.44401 | -99.06358 | 7302 ft | 12 kts | 242° |
| 2026-05-08 02:48 | 19.44341 | -99.06466 | 7302 ft | 19 kts | 239° |
| 2026-05-08 02:48 | 19.44272 | -99.06587 | 7302 ft | 19 kts | 239° |
| 2026-05-08 02:48 | 19.44207 | -99.06703 | 7302 ft | 18 kts | 239° |
| 2026-05-08 02:48 | 19.44144 | -99.06816 | 7302 ft | 17 kts | 239° |
| 2026-05-08 02:49 | 19.44084 | -99.06925 | 7302 ft | 17 kts | 239° |
| 2026-05-08 02:49 | 19.44025 | -99.07031 | 7302 ft | 16 kts | 239° |
| 2026-05-08 02:49 | 19.43972 | -99.07125 | 7302 ft | 0 kts | 239° |
| 2026-05-08 02:50 | 19.43965 | -99.07138 | 7302 ft | 5 kts | 239° |
| 2026-05-08 02:50 | 19.43938 | -99.07185 | 7302 ft | 10 kts | 239° |